Time;durP1;ratioP1;P1;durP2;ratioP2;P2;SDS_P1;SDS_P2;PMS_P1;PMS_P2;Temp;Humidity;BMP_temperature;BMP_pressure;BME280_temperature;BME280_humidity;BME280_pressure;Samples;Min_cycle;Max_cycle;Signal;HPM_P1;HPM_P2
2023/05/27 00:01:53;;;;;;;10.50;8.10;;;18.60;74.50;;;;;;6303356;28;20222;-65
2023/05/27 00:04:56;;;;;;;8.83;7.93;;;18.50;74.90;;;;;;6303721;28;20223;-65
2023/05/27 00:07:59;;;;;;;9.17;8.27;;;18.40;76.20;;;;;;6303097;28;20226;-66
2023/05/27 00:11:02;;;;;;;8.33;7.50;;;18.40;75.60;;;;;;6303289;28;20360;-65
2023/05/27 00:14:06;;;;;;;11.87;9.10;;;18.40;76.10;;;;;;6303039;28;20305;-65
2023/05/27 00:17:13;;;;;;;7.50;6.90;;;18.30;76.70;;;;;;6303014;28;20718;-66
2023/05/27 00:20:16;;;;;;;8.30;7.50;;;18.30;77.30;;;;;;6302855;28;20230;-65
2023/05/27 00:23:20;;;;;;;8.33;7.60;;;18.20;77.60;;;;;;6302653;28;20226;-65
2023/05/27 00:26:24;;;;;;;10.33;8.70;;;18.20;78.50;;;;;;6302511;28;20677;-65
2023/05/27 00:29:27;;;;;;;8.20;7.40;;;18.20;78.60;;;;;;6302594;28;20227;-65
2023/05/27 00:32:32;;;;;;;9.37;8.43;;;18.10;78.90;;;;;;6302080;28;20452;-66
2023/05/27 00:35:35;;;;;;;8.40;7.70;;;18.10;79.70;;;;;;6302235;28;20199;-66
2023/05/27 00:38:38;;;;;;;8.67;7.87;;;18.10;80.00;;;;;;6302528;28;20221;-65
2023/05/27 00:41:48;;;;;;;7.83;7.07;;;18.00;81.00;;;;;;6301634;28;20313;-65
2023/05/27 00:44:51;;;;;;;9.20;8.20;;;17.90;81.40;;;;;;6293343;28;20317;-65
2023/05/27 00:47:56;;;;;;;9.47;7.50;;;17.90;82.00;;;;;;6301859;28;20469;-66
2023/05/27 00:51:02;;;;;;;10.17;7.93;;;17.90;82.90;;;;;;6302282;28;20230;-66
2023/05/27 00:54:06;;;;;;;9.83;8.57;;;17.80;82.80;;;;;;6301989;28;20473;-65
2023/05/27 00:57:09;;;;;;;8.20;7.40;;;17.70;83.50;;;;;;6302106;28;20237;-65
2023/05/27 01:00:14;;;;;;;8.67;7.83;;;17.70;84.40;;;;;;6301773;28;20231;-65
2023/05/27 01:03:20;;;;;;;8.80;7.87;;;17.60;85.00;;;;;;6301730;28;20937;-65
2023/05/27 01:06:31;;;;;;;9.10;8.20;;;17.50;86.00;;;;;;6301545;28;20997;-65
2023/05/27 01:09:41;;;;;;;8.33;7.53;;;17.50;86.60;;;;;;6301913;28;20235;-65
2023/05/27 01:12:51;;;;;;;8.30;7.30;;;17.40;87.10;;;;;;6301567;28;20655;-65
2023/05/27 01:15:57;;;;;;;9.30;8.40;;;17.40;87.40;;;;;;6301628;28;20317;-66
2023/05/27 01:19:03;;;;;;;8.40;7.60;;;17.30;88.40;;;;;;6300884;28;20472;-66
2023/05/27 01:22:08;;;;;;;9.17;8.23;;;17.20;89.10;;;;;;6301654;28;20802;-66
2023/05/27 01:25:13;;;;;;;10.93;8.20;;;17.10;90.00;;;;;;6301816;28;20491;-66
2023/05/27 01:28:16;;;;;;;8.53;7.73;;;17.10;90.20;;;;;;6306381;28;20606;-66
2023/05/27 01:31:23;;;;;;;10.67;8.27;;;17.00;90.30;;;;;;6306873;28;20907;-66
2023/05/27 01:34:34;;;;;;;8.20;7.37;;;17.00;90.80;;;;;;6318764;28;20469;-65
2023/05/27 01:37:41;;;;;;;11.53;8.60;;;17.00;91.00;;;;;;6321954;28;20491;-65
2023/05/27 01:40:47;;;;;;;8.30;7.53;;;16.90;91.40;;;;;;6301530;28;20488;-66
2023/05/27 01:43:50;;;;;;;8.77;7.40;;;16.80;91.80;;;;;;6300846;28;20981;-65
2023/05/27 01:46:59;;;;;;;9.07;8.13;;;16.80;92.10;;;;;;6300391;28;20495;-65
2023/05/27 01:50:03;;;;;;;10.30;7.67;;;16.80;92.30;;;;;;6300886;28;20473;-65
2023/05/27 01:53:07;;;;;;;9.63;8.73;;;16.70;92.50;;;;;;6300771;28;20496;-65
2023/05/27 01:56:11;;;;;;;10.00;8.10;;;16.70;92.90;;;;;;6300626;28;20469;-65
2023/05/27 01:59:14;;;;;;;11.40;7.77;;;16.60;93.00;;;;;;6300286;28;20473;-65
2023/05/27 02:02:18;;;;;;;8.87;7.97;;;16.60;93.20;;;;;;6300314;28;20473;-66
2023/05/27 02:05:21;;;;;;;9.87;8.20;;;16.60;93.50;;;;;;6299945;28;20789;-66
2023/05/27 02:08:25;;;;;;;8.50;7.73;;;16.50;93.70;;;;;;6300314;28;20558;-66
2023/05/27 02:11:29;;;;;;;10.33;7.40;;;16.50;94.00;;;;;;6299686;28;20465;-66
2023/05/27 02:14:34;;;;;;;10.03;9.03;;;16.50;94.30;;;;;;6300252;28;20542;-66
2023/05/27 02:17:37;;;;;;;9.00;8.10;;;16.40;94.50;;;;;;6299794;28;20437;-66
2023/05/27 02:20:41;;;;;;;8.60;7.60;;;16.40;94.90;;;;;;6300470;28;20471;-66
2023/05/27 02:23:44;;;;;;;9.17;8.40;;;16.30;95.10;;;;;;6299997;28;20538;-66
2023/05/27 02:26:49;;;;;;;8.43;7.63;;;16.20;95.20;;;;;;6299928;28;20933;-66
2023/05/27 02:29:52;;;;;;;9.17;8.30;;;16.20;95.20;;;;;;6299435;28;20462;-66
2023/05/27 02:32:57;;;;;;;9.40;7.73;;;16.10;95.70;;;;;;6299828;28;20968;-66
2023/05/27 02:36:00;;;;;;;8.23;7.23;;;16.00;95.90;;;;;;6299660;28;20774;-65
2023/05/27 02:39:03;;;;;;;8.73;7.87;;;16.00;96.20;;;;;;6299936;28;20457;-66
2023/05/27 02:42:08;;;;;;;9.80;8.10;;;16.00;96.40;;;;;;6300247;28;20465;-66
2023/05/27 02:45:11;;;;;;;8.43;7.60;;;15.90;96.50;;;;;;6300275;28;20602;-66
2023/05/27 02:48:15;;;;;;;11.63;8.00;;;15.90;96.70;;;;;;6302785;28;20795;-66
2023/05/27 02:51:18;;;;;;;9.20;8.30;;;15.90;97.00;;;;;;6302853;28;20497;-66
2023/05/27 02:54:21;;;;;;;8.83;7.90;;;15.80;97.40;;;;;;6301700;28;20816;-66
2023/05/27 02:57:26;;;;;;;9.77;8.63;;;15.80;97.60;;;;;;6303602;28;20473;-66
2023/05/27 03:00:30;;;;;;;8.17;7.37;;;15.80;97.60;;;;;;6305961;28;20566;-66
2023/05/27 03:03:33;;;;;;;10.53;8.50;;;15.70;97.90;;;;;;6302228;28;20469;-66
2023/05/27 03:06:37;;;;;;;9.70;8.60;;;15.60;98.10;;;;;;6301512;28;21097;-66
2023/05/27 03:09:40;;;;;;;9.03;8.13;;;15.60;98.30;;;;;;6299791;28;20473;-66
2023/05/27 03:12:44;;;;;;;8.50;7.80;;;15.60;98.40;;;;;;6299659;28;20471;-66
2023/05/27 03:15:48;;;;;;;8.87;7.97;;;15.50;98.50;;;;;;6299134;28;21086;-66
2023/05/27 03:18:52;;;;;;;9.77;8.67;;;15.50;98.70;;;;;;6299133;28;20465;-66
2023/05/27 03:21:55;;;;;;;9.10;8.27;;;15.50;98.60;;;;;;6316355;28;20465;-66
2023/05/27 03:24:59;;;;;;;9.60;8.60;;;15.50;98.60;;;;;;6303079;28;20469;-66
2023/05/27 03:28:05;;;;;;;10.00;8.17;;;15.50;98.70;;;;;;6298973;28;20900;-66
2023/05/27 03:31:08;;;;;;;9.77;8.27;;;15.50;98.80;;;;;;6298366;28;20983;-66
2023/05/27 03:34:11;;;;;;;7.97;6.90;;;15.50;98.80;;;;;;6299068;28;20473;-66
2023/05/27 03:37:15;;;;;;;9.23;8.43;;;15.40;98.60;;;;;;6299330;28;20563;-66
2023/05/27 03:40:18;;;;;;;9.47;7.77;;;15.40;98.70;;;;;;6298530;28;20794;-65
2023/05/27 03:43:22;;;;;;;8.80;7.90;;;15.40;98.90;;;;;;6298832;28;20465;-66
2023/05/27 03:46:26;;;;;;;10.23;9.00;;;15.40;98.80;;;;;;6299049;28;20558;-66
2023/05/27 03:49:29;;;;;;;8.70;7.90;;;15.40;98.90;;;;;;6299008;28;20477;-66
2023/05/27 03:52:32;;;;;;;8.97;8.00;;;15.40;98.80;;;;;;6299467;28;20983;-66
2023/05/27 03:55:35;;;;;;;10.73;8.67;;;15.50;98.90;;;;;;6299646;28;20555;-65
2023/05/27 03:58:40;;;;;;;9.00;8.10;;;15.50;98.70;;;;;;6289879;28;20483;-66
2023/05/27 04:01:44;;;;;;;8.47;7.60;;;15.50;98.50;;;;;;6300118;28;20489;-65
2023/05/27 04:04:48;;;;;;;9.10;8.20;;;15.50;98.70;;;;;;6305526;28;20472;-66
2023/05/27 04:07:51;;;;;;;9.20;8.30;;;15.60;98.80;;;;;;6301022;28;21005;-66
2023/05/27 04:10:55;;;;;;;9.00;8.10;;;15.60;98.80;;;;;;6303116;28;20483;-66
2023/05/27 04:13:59;;;;;;;12.50;7.97;;;15.60;98.90;;;;;;6303662;28;20793;-66
2023/05/27 04:17:02;;;;;;;8.93;8.07;;;15.70;98.90;;;;;;6303551;28;20472;-66
2023/05/27 04:20:13;;;;;;;9.30;8.20;;;15.80;98.60;;;;;;6303957;28;20485;-65
2023/05/27 04:23:17;;;;;;;9.17;8.27;;;15.90;98.20;;;;;;6303677;28;20868;-65
2023/05/27 04:26:20;;;;;;;9.50;8.57;;;15.90;98.00;;;;;;6303093;28;20468;-66
2023/05/27 04:29:25;;;;;;;9.23;8.27;;;16.00;98.10;;;;;;6303123;28;20510;-65
2023/05/27 04:32:28;;;;;;;8.40;7.60;;;16.10;98.10;;;;;;6303521;28;20906;-66
2023/05/27 04:35:32;;;;;;;8.70;7.77;;;16.20;97.70;;;;;;6303763;28;20445;-66
2023/05/27 04:38:35;;;;;;;9.57;8.67;;;16.40;97.70;;;;;;6305048;28;20456;-66
2023/05/27 04:41:39;;;;;;;10.30;9.20;;;16.50;97.60;;;;;;6302787;28;20495;-66
2023/05/27 04:44:44;;;;;;;9.53;8.63;;;16.50;97.30;;;;;;6303271;28;20520;-66
2023/05/27 04:47:48;;;;;;;9.07;7.70;;;16.70;97.40;;;;;;6302856;28;20456;-66
2023/05/27 04:50:52;;;;;;;14.23;9.23;;;16.80;96.70;;;;;;6301982;28;20972;-66
2023/05/27 04:53:56;;;;;;;11.53;9.00;;;16.90;96.90;;;;;;6302319;28;20467;-66
2023/05/27 04:56:59;;;;;;;8.93;8.10;;;17.00;96.70;;;;;;6302036;28;20534;-66
2023/05/27 05:00:23;;;;;;;8.80;7.90;;;17.10;96.80;;;;;;6297650;28;20461;-66
2023/05/27 05:03:36;;;;;;;8.17;7.27;;;17.30;96.50;;;;;;6302470;28;20790;-66
2023/05/27 05:06:41;;;;;;;9.10;8.10;;;17.50;96.50;;;;;;6302131;28;20473;-66
2023/05/27 05:09:44;;;;;;;8.67;7.73;;;17.60;95.90;;;;;;6301596;28;20317;-66
2023/05/27 05:12:47;;;;;;;12.73;8.33;;;17.80;95.50;;;;;;6302033;28;21245;-66
2023/05/27 05:15:52;;;;;;;10.03;9.03;;;17.90;94.90;;;;;;6301488;28;20556;-67
2023/05/27 05:18:55;;;;;;;10.20;9.13;;;18.10;94.60;;;;;;6303588;28;20546;-67
2023/05/27 05:21:58;;;;;;;10.17;8.60;;;18.20;94.40;;;;;;6303522;28;20237;-66
2023/05/27 05:25:01;;;;;;;9.03;8.10;;;18.40;94.60;;;;;;6301944;28;20288;-66
2023/05/27 05:28:05;;;;;;;9.83;7.80;;;18.60;94.30;;;;;;6301254;28;20267;-66
2023/05/27 05:31:10;;;;;;;10.03;9.03;;;18.70;93.90;;;;;;6301122;28;20671;-66
2023/05/27 05:34:13;;;;;;;12.30;8.80;;;18.90;94.10;;;;;;6301009;28;20307;-66
2023/05/27 05:37:18;;;;;;;8.50;7.63;;;19.10;94.00;;;;;;6301593;28;20555;-66
2023/05/27 05:40:23;;;;;;;8.47;7.67;;;19.20;93.50;;;;;;6300974;28;20678;-66
2023/05/27 05:43:26;;;;;;;9.97;8.87;;;19.40;92.90;;;;;;6300985;28;20234;-66
2023/05/27 05:46:31;;;;;;;8.80;8.00;;;19.50;91.50;;;;;;6300935;28;20662;-66
2023/05/27 05:49:35;;;;;;;8.43;7.63;;;19.70;90.80;;;;;;6300931;28;20223;-66
2023/05/27 05:52:38;;;;;;;9.33;8.47;;;20.00;90.50;;;;;;6300876;28;20280;-66
2023/05/27 05:55:41;;;;;;;8.33;7.53;;;20.20;88.90;;;;;;6300840;28;20251;-66
2023/05/27 05:58:44;;;;;;;8.63;7.83;;;20.60;86.60;;;;;;6300450;28;20227;-66
2023/05/27 06:01:49;;;;;;;9.00;8.10;;;21.00;85.70;;;;;;6300662;28;20365;-66
2023/05/27 06:04:52;;;;;;;10.23;8.30;;;21.50;83.10;;;;;;6300717;28;20241;-66
2023/05/27 06:07:56;;;;;;;8.20;7.40;;;22.40;79.60;;;;;;6301311;28;20230;-67
2023/05/27 06:10:59;;;;;;;9.17;7.93;;;23.00;76.80;;;;;;6300844;28;20305;-67
2023/05/27 06:14:02;;;;;;;8.47;7.47;;;23.70;72.40;;;;;;6300426;28;20222;-67
2023/05/27 06:17:07;;;;;;;8.27;7.53;;;24.40;70.00;;;;;;6300540;28;20310;-67
2023/05/27 06:20:11;;;;;;;8.00;7.30;;;24.90;68.00;;;;;;6300224;28;20231;-67
2023/05/27 06:23:14;;;;;;;9.10;7.70;;;25.40;65.10;;;;;;6300699;28;20301;-67
2023/05/27 06:26:17;;;;;;;9.27;7.83;;;25.80;61.90;;;;;;6300648;28;20226;-67
2023/05/27 06:29:20;;;;;;;7.60;7.00;;;26.20;58.10;;;;;;6300257;28;20233;-67
2023/05/27 06:32:25;;;;;;;8.80;7.90;;;27.00;56.30;;;;;;6299967;28;20364;-67
2023/05/27 06:35:28;;;;;;;8.60;7.70;;;27.60;53.40;;;;;;6299980;28;20236;-67
2023/05/27 06:38:31;;;;;;;8.17;7.47;;;28.30;50.10;;;;;;6300130;28;20214;-67
2023/05/27 06:41:35;;;;;;;9.83;7.60;;;28.60;48.50;;;;;;6305991;28;20293;-67
2023/05/27 06:44:38;;;;;;;8.17;7.53;;;29.30;46.50;;;;;;6308355;28;20214;-67
2023/05/27 06:47:42;;;;;;;8.83;7.70;;;29.60;44.70;;;;;;6300679;28;20202;-66
2023/05/27 06:50:46;;;;;;;7.80;7.10;;;29.90;44.40;;;;;;6300013;28;20313;-67
2023/05/27 06:53:49;;;;;;;7.17;6.50;;;30.40;43.20;;;;;;6299927;28;20672;-66
2023/05/27 06:56:52;;;;;;;7.93;7.25;;;30.80;40.30;;;;;;6299782;28;20301;-66
2023/05/27 06:59:56;;;;;;;8.82;7.30;;;31.20;38.80;;;;;;6299852;28;20234;-66
2023/05/27 07:03:01;;;;;;;7.35;6.72;;;31.80;37.70;;;;;;6299638;28;20222;-66
2023/05/27 07:06:05;;;;;;;7.30;6.60;;;32.00;36.50;;;;;;6299488;28;20704;-66
2023/05/27 07:09:08;;;;;;;7.45;6.68;;;32.40;36.50;;;;;;6299749;28;20233;-67
2023/05/27 07:12:11;;;;;;;7.63;6.65;;;33.00;35.30;;;;;;6299445;28;20674;-65
2023/05/27 07:15:14;;;;;;;7.18;6.45;;;33.80;33.20;;;;;;6299768;28;20378;-66
2023/05/27 07:18:19;;;;;;;8.88;7.28;;;34.40;31.90;;;;;;6299607;28;20313;-67
2023/05/27 07:21:22;;;;;;;8.55;7.68;;;35.00;31.60;;;;;;6298885;28;20226;-66
2023/05/27 07:24:25;;;;;;;8.48;7.70;;;35.20;31.80;;;;;;6299115;28;20226;-65
2023/05/27 07:27:28;;;;;;;8.98;8.15;;;34.70;31.70;;;;;;6299190;28;20236;-68
2023/05/27 07:30:31;;;;;;;7.40;6.70;;;35.30;31.50;;;;;;6299124;28;20316;-65
2023/05/27 07:33:36;;;;;;;8.65;7.88;;;36.00;30.50;;;;;;6299410;28;20237;-66
2023/05/27 07:36:39;;;;;;;6.80;6.18;;;36.80;29.40;;;;;;6299486;28;20226;-66
2023/05/27 07:39:42;;;;;;;8.02;7.32;;;37.50;27.90;;;;;;6299900;28;20238;-66
2023/05/27 07:42:46;;;;;;;7.35;6.40;;;37.70;27.50;;;;;;6300896;28;20238;-66
2023/05/27 07:45:49;;;;;;;6.68;6.05;;;38.20;26.70;;;;;;6303984;28;20743;-66
2023/05/27 07:48:53;;;;;;;6.43;5.82;;;38.50;25.50;;;;;;6304214;28;20226;-66
2023/05/27 07:51:56;;;;;;;8.38;6.82;;;38.50;24.80;;;;;;6304411;28;20233;-67
2023/05/27 07:55:00;;;;;;;7.60;6.00;;;38.20;24.80;;;;;;6303858;28;20615;-66
2023/05/27 07:58:03;;;;;;;6.07;5.47;;;37.90;25.00;;;;;;6303307;28;20287;-67
2023/05/27 08:01:06;;;;;;;7.40;5.95;;;37.40;23.70;;;;;;6303202;28;20655;-67
2023/05/27 08:04:11;;;;;;;6.95;6.25;;;36.80;24.10;;;;;;6303587;28;20245;-67
2023/05/27 08:07:27;;;;;;;11.38;6.47;;;36.00;25.50;;;;;;6303708;28;20689;-67
2023/05/27 08:10:31;;;;;;;6.55;5.28;;;34.80;26.30;;;;;;6303194;28;20226;-67
2023/05/27 08:13:34;;;;;;;7.47;6.80;;;33.60;26.80;;;;;;6298996;28;20323;-66
2023/05/27 08:16:37;;;;;;;6.88;6.20;;;32.50;27.30;;;;;;6303119;28;20309;-67
2023/05/27 08:19:41;;;;;;;7.47;6.57;;;31.90;28.80;;;;;;6303229;28;20236;-66
2023/05/27 08:22:45;;;;;;;11.45;6.65;;;31.50;29.10;;;;;;6303397;28;20249;-66
2023/05/27 08:25:49;;;;;;;11.98;7.38;;;31.00;29.70;;;;;;6303026;28;20309;-66
2023/05/27 08:28:52;;;;;;;12.73;9.32;;;30.60;38.50;;;;;;6302659;28;20571;-66
2023/05/27 08:31:55;;;;;;;7.55;6.85;;;29.60;36.80;;;;;;6302814;28;20230;-66
2023/05/27 08:35:00;;;;;;;7.43;6.40;;;29.20;31.60;;;;;;6301757;28;20252;-66
2023/05/27 08:38:03;;;;;;;7.53;6.20;;;28.80;32.00;;;;;;6302873;28;20317;-66
2023/05/27 08:41:06;;;;;;;7.97;6.57;;;28.50;33.10;;;;;;6302530;28;20253;-66
2023/05/27 08:44:10;;;;;;;7.07;6.37;;;28.20;33.00;;;;;;6302281;28;20319;-66
2023/05/27 08:47:23;;;;;;;7.70;7.00;;;27.80;33.70;;;;;;6302776;28;20692;-66
2023/05/27 08:50:28;;;;;;;8.10;6.47;;;27.60;34.20;;;;;;6302399;28;20237;-66
2023/05/27 08:53:32;;;;;;;10.23;6.13;;;27.00;34.40;;;;;;6301605;28;20218;-66
2023/05/27 08:56:37;;;;;;;7.77;5.20;;;26.60;35.60;;;;;;6301863;28;20205;-65
2023/05/27 08:59:40;;;;;;;8.70;5.40;;;26.50;33.50;;;;;;6302494;28;20241;-66
2023/05/27 09:02:43;;;;;;;6.40;5.70;;;26.40;32.80;;;;;;6302924;28;20522;-66
2023/05/27 09:05:48;;;;;;;5.70;5.20;;;26.50;34.90;;;;;;6302336;28;20268;-65
2023/05/27 09:08:51;;;;;;;4.93;4.43;;;26.80;33.60;;;;;;6302010;28;20226;-65
2023/05/27 09:12:00;;;;;;;6.37;5.00;;;27.00;32.00;;;;;;6305327;28;20226;-66
2023/05/27 09:15:04;;;;;;;5.93;4.63;;;27.30;30.80;;;;;;6316761;28;20230;-65
2023/05/27 09:18:08;;;;;;;8.30;5.67;;;27.50;30.00;;;;;;6311031;28;20234;-66
2023/05/27 09:21:12;;;;;;;11.60;6.33;;;27.70;34.40;;;;;;6323733;28;20242;-65
2023/05/27 09:24:15;;;;;;;7.57;6.10;;;27.80;35.30;;;;;;6309821;28;20238;-66
2023/05/27 09:27:19;;;;;;;8.13;5.43;;;27.90;35.30;;;;;;6302413;28;20732;-66
2023/05/27 09:30:23;;;;;;;9.20;6.40;;;28.00;31.10;;;;;;6301114;28;20658;-66
2023/05/27 09:33:28;;;;;;;7.60;5.60;;;28.20;37.40;;;;;;6302019;28;20222;-66
2023/05/27 09:36:33;;;;;;;5.93;4.40;;;28.20;35.00;;;;;;6301567;28;20641;-66
2023/05/27 09:39:38;;;;;;;5.10;4.27;;;28.10;29.30;;;;;;6301397;28;20250;-66
2023/05/27 09:42:43;;;;;;;7.97;5.27;;;28.20;32.80;;;;;;6301574;28;20541;-66
2023/05/27 09:45:46;;;;;;;5.07;4.60;;;28.30;32.20;;;;;;6301367;28;20230;-67
2023/05/27 09:48:49;;;;;;;5.00;4.40;;;28.30;35.30;;;;;;6301158;28;20308;-65
2023/05/27 09:51:57;;;;;;;6.40;5.10;;;28.00;31.20;;;;;;6300789;28;20685;-65
2023/05/27 09:55:00;;;;;;;5.40;4.13;;;28.10;29.90;;;;;;6301056;28;20356;-65
2023/05/27 09:58:03;;;;;;;4.90;4.40;;;28.00;28.70;;;;;;6301124;28;20222;-66
2023/05/27 10:01:07;;;;;;;5.00;4.60;;;28.00;29.80;;;;;;6300556;28;20219;-67
2023/05/27 10:04:11;;;;;;;5.80;5.20;;;27.90;33.20;;;;;;6301131;28;20230;-66
2023/05/27 10:07:20;;;;;;;6.63;4.90;;;28.00;29.60;;;;;;6300922;28;20226;-66
2023/05/27 10:10:34;;;;;;;6.30;5.10;;;28.00;31.00;;;;;;6300373;28;20226;-66
2023/05/27 10:13:37;;;;;;;7.17;5.20;;;28.00;31.90;;;;;;6300567;28;20544;-66
2023/05/27 10:16:53;;;;;;;6.90;5.13;;;27.80;31.40;;;;;;6300471;28;20240;-66
2023/05/27 10:19:57;;;;;;;7.27;4.77;;;27.70;32.70;;;;;;6299983;28;20560;-66
2023/05/27 10:23:12;;;;;;;7.97;5.70;;;27.70;32.00;;;;;;6295481;28;20233;-66
2023/05/27 10:26:15;;;;;;;5.80;5.20;;;27.20;33.30;;;;;;6300429;28;20692;-66
2023/05/27 10:29:18;;;;;;;9.80;5.37;;;26.90;34.30;;;;;;6299714;28;20235;-65
2023/05/27 10:32:21;;;;;;;5.97;5.37;;;26.70;34.10;;;;;;6300176;28;20230;-66
2023/05/27 10:35:27;;;;;;;6.07;5.40;;;26.40;35.00;;;;;;6300281;28;20248;-66
2023/05/27 10:38:32;;;;;;;5.50;4.57;;;26.50;34.90;;;;;;6300342;28;20384;-66
2023/05/27 10:41:42;;;;;;;5.87;5.07;;;26.70;35.20;;;;;;6299481;28;20234;-66
2023/05/27 10:44:45;;;;;;;8.83;4.47;;;26.60;35.20;;;;;;6299989;28;20273;-67
2023/05/27 10:47:49;;;;;;;6.43;4.80;;;26.80;34.80;;;;;;6299658;28;20202;-66
2023/05/27 10:50:53;;;;;;;5.93;4.83;;;27.00;34.30;;;;;;6300169;28;20225;-66
2023/05/27 10:53:58;;;;;;;7.90;4.60;;;27.00;33.80;;;;;;6299997;28;20229;-66
2023/05/27 10:57:07;;;;;;;6.83;5.13;;;27.20;34.20;;;;;;6299717;28;20234;-66
2023/05/27 11:00:16;;;;;;;7.90;5.23;;;27.10;33.60;;;;;;6299822;28;20226;-66
2023/05/27 11:03:24;;;;;;;7.40;5.37;;;27.20;34.00;;;;;;6299578;28;20580;-66
2023/05/27 11:06:27;;;;;;;5.53;4.57;;;27.50;33.80;;;;;;6299791;28;20230;-67
2023/05/27 11:09:32;;;;;;;5.90;5.17;;;27.60;33.30;;;;;;6299731;28;20229;-66
2023/05/27 11:12:35;;;;;;;9.00;5.23;;;27.20;33.00;;;;;;6299623;28;20249;-66
2023/05/27 11:15:41;;;;;;;6.03;5.43;;;27.10;33.60;;;;;;6302658;28;20769;-66
2023/05/27 11:18:46;;;;;;;6.90;4.53;;;26.50;34.20;;;;;;6302483;28;20664;-65
2023/05/27 11:21:50;;;;;;;5.83;5.07;;;26.50;35.20;;;;;;6299842;28;20233;-66
2023/05/27 11:24:58;;;;;;;7.83;4.43;;;26.50;34.80;;;;;;6295179;28;20253;-67
2023/05/27 11:28:01;;;;;;;7.90;4.93;;;26.60;34.90;;;;;;6299380;28;20226;-66
2023/05/27 11:31:05;;;;;;;6.50;5.10;;;26.80;35.20;;;;;;6299652;28;20233;-66
2023/05/27 11:34:13;;;;;;;6.93;5.47;;;26.80;34.40;;;;;;6299653;28;20226;-66
2023/05/27 11:37:17;;;;;;;6.60;4.90;;;26.90;34.70;;;;;;6299357;28;20230;-66
2023/05/27 11:40:24;;;;;;;4.70;4.30;;;26.90;35.50;;;;;;6299046;28;20549;-66
2023/05/27 11:43:27;;;;;;;9.17;5.67;;;27.20;34.30;;;;;;6299943;28;20230;-66
2023/05/27 11:46:37;;;;;;;6.23;4.50;;;26.90;33.90;;;;;;6299773;28;20234;-66
2023/05/27 11:49:40;;;;;;;6.80;5.00;;;26.80;34.90;;;;;;6304564;28;20258;-67
2023/05/27 11:52:57;;;;;;;6.10;5.50;;;26.90;34.00;;;;;;6316970;28;20316;-67
2023/05/27 11:56:01;;;;;;;6.90;5.13;;;27.10;35.30;;;;;;6300948;28;20226;-67
2023/05/27 11:59:05;;;;;;;6.47;5.13;;;27.10;33.40;;;;;;6298856;28;20249;-66
2023/05/27 12:02:08;;;;;;;6.33;5.40;;;27.10;34.50;;;;;;6299597;28;20239;-66
2023/05/27 12:05:11;;;;;;;4.93;4.23;;;27.10;34.00;;;;;;6300666;28;20348;-66
2023/05/27 12:08:27;;;;;;;5.30;4.43;;;27.10;34.10;;;;;;6301308;28;20305;-68
2023/05/27 12:11:32;;;;;;;8.17;5.30;;;27.20;33.30;;;;;;6301791;28;20238;-66
2023/05/27 12:14:35;;;;;;;6.70;5.30;;;27.40;33.80;;;;;;6301109;28;20248;-66
2023/05/27 12:17:38;;;;;;;5.80;5.27;;;27.30;33.10;;;;;;6301485;28;20216;-67
2023/05/27 12:20:42;;;;;;;6.20;5.60;;;27.30;34.20;;;;;;6300630;28;20271;-68
2023/05/27 12:23:45;;;;;;;6.60;5.30;;;27.20;33.70;;;;;;6299967;28;20203;-68
2023/05/27 12:26:49;;;;;;;8.50;5.33;;;27.20;34.70;;;;;;6300596;28;20725;-68
2023/05/27 12:29:53;;;;;;;7.90;4.90;;;26.90;33.70;;;;;;6302914;28;20280;-67
2023/05/27 12:32:56;;;;;;;6.17;5.20;;;26.40;35.20;;;;;;6304146;28;20226;-68
2023/05/27 12:36:00;;;;;;;6.10;4.80;;;26.20;34.40;;;;;;6303764;28;20298;-66
2023/05/27 12:39:04;;;;;;;7.60;5.67;;;26.10;35.00;;;;;;6303491;28;20629;-66
2023/05/27 12:42:09;;;;;;;6.53;5.40;;;26.10;35.30;;;;;;6304283;28;20218;-66
2023/05/27 12:45:12;;;;;;;4.97;4.47;;;26.00;35.60;;;;;;6303696;28;20240;-66
2023/05/27 12:48:17;;;;;;;6.77;6.07;;;26.00;36.30;;;;;;6304047;28;20308;-67
2023/05/27 12:51:20;;;;;;;7.03;5.80;;;26.20;37.20;;;;;;6303089;28;20559;-66
2023/05/27 12:54:23;;;;;;;7.20;6.20;;;26.30;36.00;;;;;;6302928;28;20300;-66
2023/05/27 12:57:28;;;;;;;6.60;5.20;;;26.40;35.90;;;;;;6302726;28;20321;-66
2023/05/27 13:00:34;;;;;;;5.63;5.00;;;26.30;36.00;;;;;;6302503;28;20713;-66
2023/05/27 13:03:37;;;;;;;8.07;5.10;;;26.00;36.10;;;;;;6302582;28;20227;-66
2023/05/27 13:06:40;;;;;;;11.87;6.37;;;26.10;37.00;;;;;;6302875;28;20237;-66
2023/05/27 13:09:43;;;;;;;6.70;5.27;;;25.80;36.60;;;;;;6302298;28;20245;-66
2023/05/27 13:12:48;;;;;;;5.37;4.87;;;25.90;36.70;;;;;;6302069;28;20305;-67
2023/05/27 13:15:51;;;;;;;6.13;4.73;;;25.70;36.20;;;;;;6302021;28;20306;-67
2023/05/27 13:18:55;;;;;;;5.60;4.97;;;25.40;37.20;;;;;;6303263;28;20670;-67
2023/05/27 13:21:58;;;;;;;8.07;5.10;;;25.30;38.10;;;;;;6305085;28;20245;-65
2023/05/27 13:25:03;;;;;;;6.07;5.30;;;25.40;37.70;;;;;;6301951;28;20237;-65
2023/05/27 13:28:07;;;;;;;6.70;5.57;;;25.60;37.50;;;;;;6301536;28;20307;-65
2023/05/27 13:31:10;;;;;;;8.23;5.13;;;25.40;38.00;;;;;;6301957;28;20306;-65
2023/05/27 13:34:13;;;;;;;6.77;5.47;;;25.30;38.30;;;;;;6292687;28;20234;-65
2023/05/27 13:37:17;;;;;;;7.07;5.57;;;25.40;39.50;;;;;;6301763;28;20230;-66
2023/05/27 13:40:20;;;;;;;7.03;5.47;;;25.70;39.20;;;;;;6301372;28;20570;-67
2023/05/27 13:43:25;;;;;;;7.33;6.00;;;25.80;37.70;;;;;;6302155;28;20597;-65
2023/05/27 13:46:28;;;;;;;7.23;5.93;;;25.70;37.20;;;;;;6302183;28;20233;-66
2023/05/27 13:49:31;;;;;;;7.00;5.70;;;25.80;39.10;;;;;;6301318;28;20704;-65
2023/05/27 13:52:35;;;;;;;5.97;5.30;;;25.70;37.90;;;;;;6301186;28;20233;-65
2023/05/27 13:55:38;;;;;;;5.33;4.83;;;25.30;38.00;;;;;;6300927;28;20364;-65
2023/05/27 13:58:43;;;;;;;6.23;5.30;;;25.50;38.60;;;;;;6300951;28;20677;-65
2023/05/27 14:01:46;;;;;;;6.37;5.60;;;25.50;38.40;;;;;;6300177;28;20222;-66
2023/05/27 14:04:49;;;;;;;6.80;6.10;;;25.50;38.50;;;;;;6300757;28;20222;-65
2023/05/27 14:07:55;;;;;;;8.50;5.47;;;25.70;39.20;;;;;;6300419;28;20222;-66
2023/05/27 14:10:59;;;;;;;7.23;5.77;;;25.80;37.50;;;;;;6300431;28;20237;-66
2023/05/27 14:14:03;;;;;;;7.60;5.70;;;25.70;38.00;;;;;;6300369;28;20226;-66
2023/05/27 14:17:07;;;;;;;7.27;6.30;;;25.50;38.30;;;;;;6300721;28;20233;-65
2023/05/27 14:20:11;;;;;;;6.27;5.63;;;25.40;37.90;;;;;;6300398;28;20708;-65
2023/05/27 14:23:16;;;;;;;9.60;5.77;;;25.20;38.20;;;;;;6304736;28;20670;-65
2023/05/27 14:26:20;;;;;;;8.47;5.70;;;25.30;38.50;;;;;;6302940;28;20636;-65
2023/05/27 14:29:24;;;;;;;9.10;6.20;;;25.10;39.00;;;;;;6300064;28;20244;-64
2023/05/27 14:32:28;;;;;;;6.53;5.70;;;24.80;39.90;;;;;;6300524;28;20241;-64
2023/05/27 14:35:31;;;;;;;6.60;5.93;;;24.70;40.70;;;;;;6301131;28;20238;-66
2023/05/27 14:38:34;;;;;;;5.93;5.33;;;24.90;40.50;;;;;;6300371;28;20297;-65
2023/05/27 14:41:37;;;;;;;7.80;6.23;;;25.00;40.50;;;;;;6299643;28;20244;-65
2023/05/27 14:44:42;;;;;;;6.00;5.43;;;25.00;40.70;;;;;;6300065;28;20660;-67
2023/05/27 14:47:45;;;;;;;9.87;5.70;;;25.20;40.60;;;;;;6299802;28;20212;-64
2023/05/27 14:50:48;;;;;;;7.70;5.80;;;25.10;40.50;;;;;;6299676;28;20222;-64
2023/05/27 14:53:51;;;;;;;7.60;5.70;;;25.30;40.50;;;;;;6299103;28;20332;-67
2023/05/27 14:56:55;;;;;;;6.10;5.50;;;25.50;40.20;;;;;;6299673;28;20230;-65
2023/05/27 15:00:02;;;;;;;8.50;5.90;;;25.40;40.10;;;;;;6300276;28;20721;-64
2023/05/27 15:03:05;;;;;;;8.70;6.30;;;25.30;39.70;;;;;;6300053;28;20228;-65
2023/05/27 15:06:10;;;;;;;7.43;6.10;;;25.40;39.60;;;;;;6299814;28;20542;-65
2023/05/27 15:09:13;;;;;;;7.03;6.00;;;25.30;40.00;;;;;;6299159;28;20317;-65
2023/05/27 15:12:17;;;;;;;5.80;5.20;;;25.30;40.00;;;;;;6299426;28;20305;-65
2023/05/27 15:15:25;;;;;;;6.50;4.90;;;25.10;40.00;;;;;;6298894;28;20238;-65
2023/05/27 15:18:29;;;;;;;6.47;5.67;;;25.00;40.30;;;;;;6299369;28;20290;-66
2023/05/27 15:21:33;;;;;;;7.47;6.53;;;24.90;40.50;;;;;;6299620;28;20236;-65
2023/05/27 15:24:36;;;;;;;7.30;6.60;;;25.00;40.40;;;;;;6299480;28;20257;-65
2023/05/27 15:27:39;;;;;;;6.80;5.43;;;25.20;40.50;;;;;;6301177;28;20585;-65
2023/05/27 15:30:44;;;;;;;7.40;6.00;;;25.10;40.30;;;;;;6299870;28;20316;-65
2023/05/27 15:33:47;;;;;;;6.67;5.90;;;24.80;41.20;;;;;;6298930;28;20545;-65
2023/05/27 15:36:50;;;;;;;7.77;5.67;;;24.90;41.40;;;;;;6299075;28;20232;-65
2023/05/27 15:39:54;;;;;;;5.90;5.40;;;25.00;41.50;;;;;;6298679;28;20245;-65
2023/05/27 15:42:59;;;;;;;6.70;5.97;;;25.00;41.00;;;;;;6298942;28;20303;-65
2023/05/27 15:46:04;;;;;;;7.27;5.73;;;25.00;41.10;;;;;;6299185;28;20319;-65
2023/05/27 15:49:08;;;;;;;6.97;6.27;;;25.00;41.20;;;;;;6299036;28;20234;-65
2023/05/27 15:52:12;;;;;;;6.00;5.40;;;25.10;41.10;;;;;;6299227;28;20230;-65
2023/05/27 15:55:16;;;;;;;6.27;5.60;;;25.30;40.80;;;;;;6298658;28;20238;-66
2023/05/27 15:58:19;;;;;;;7.97;5.67;;;25.30;40.80;;;;;;6299009;28;20226;-66